Time;durP1;ratioP1;P1;durP2;ratioP2;P2;SDS_P1;SDS_P2;PMS_P1;PMS_P2;Temp;Humidity;BMP_temperature;BMP_pressure;BME280_temperature;BME280_humidity;BME280_pressure;Samples;Min_cycle;Max_cycle;Signal;HPM_P1;HPM_P2
2022/11/30 00:00:38;;;;;;;47.83;21.43;;;4.90;99.90;;;;;;4998041;28;20631;-89
2022/11/30 00:03:04;;;;;;;48.80;21.67;;;4.90;99.90;;;;;;4997727;28;20707;-89
2022/11/30 00:05:30;;;;;;;45.07;20.17;;;4.90;99.90;;;;;;4997925;28;20262;-90
2022/11/30 00:07:56;;;;;;;46.83;21.77;;;4.90;99.90;;;;;;4997651;28;20199;-90
2022/11/30 00:10:22;;;;;;;45.70;20.67;;;4.90;99.90;;;;;;4997719;28;20175;-91
2022/11/30 00:12:49;;;;;;;44.07;19.27;;;4.90;99.90;;;;;;4997616;28;20164;-91
2022/11/30 00:15:16;;;;;;;41.77;19.90;;;4.90;99.90;;;;;;5015073;28;20164;-90
2022/11/30 00:17:46;;;;;;;44.47;19.30;;;4.90;99.90;;;;;;4997443;28;20250;-90
2022/11/30 00:20:15;;;;;;;40.20;19.67;;;4.90;99.90;;;;;;4997373;28;20195;-90
2022/11/30 00:22:41;;;;;;;35.67;18.93;;;4.90;99.90;;;;;;4997631;28;20174;-91
2022/11/30 00:25:08;;;;;;;45.97;20.40;;;4.90;99.90;;;;;;4997516;28;20530;-90
2022/11/30 00:27:34;;;;;;;44.40;20.90;;;5.00;99.90;;;;;;4997247;28;20191;-90
2022/11/30 00:30:00;;;;;;;41.63;19.23;;;5.00;99.90;;;;;;4997146;28;20202;-90
2022/11/30 00:32:28;;;;;;;41.77;18.77;;;5.00;99.90;;;;;;5015091;28;20164;-92
2022/11/30 00:34:54;;;;;;;39.50;18.53;;;4.90;99.90;;;;;;4997655;28;20182;-92
2022/11/30 00:37:20;;;;;;;39.93;19.10;;;4.90;99.90;;;;;;4997366;28;20199;-89
2022/11/30 00:39:46;;;;;;;38.73;19.17;;;4.90;99.90;;;;;;5014977;28;20237;-90
2022/11/30 00:42:12;;;;;;;39.87;19.10;;;4.90;99.90;;;;;;4997384;28;20714;-91
2022/11/30 00:44:38;;;;;;;42.00;19.17;;;4.90;99.90;;;;;;4996881;28;20171;-89
2022/11/30 00:47:04;;;;;;;43.63;20.07;;;4.90;99.90;;;;;;4997259;28;20163;-89
2022/11/30 00:49:31;;;;;;;41.77;20.93;;;4.90;99.90;;;;;;4997128;28;20218;-90
2022/11/30 00:51:57;;;;;;;47.10;19.97;;;4.90;99.90;;;;;;4995988;28;20199;-90
2022/11/30 00:54:23;;;;;;;44.87;19.73;;;4.90;99.90;;;;;;4997263;28;20207;-90
2022/11/30 00:56:48;;;;;;;50.13;20.97;;;4.90;99.90;;;;;;4996801;28;20230;-90
2022/11/30 00:59:15;;;;;;;43.77;21.00;;;4.90;99.90;;;;;;4997016;28;20718;-92
2022/11/30 01:01:41;;;;;;;44.07;20.57;;;4.90;99.90;;;;;;4996643;28;20164;-90
2022/11/30 01:04:07;;;;;;;48.77;20.97;;;4.90;99.90;;;;;;4996507;28;20250;-89
2022/11/30 01:06:33;;;;;;;51.50;20.73;;;4.90;99.90;;;;;;5014209;28;20175;-92
2022/11/30 01:08:58;;;;;;;47.13;20.67;;;4.90;99.90;;;;;;4996601;28;20218;-89
2022/11/30 01:11:29;;;;;;;48.40;20.87;;;4.90;99.90;;;;;;4996646;28;20175;-89
2022/11/30 01:13:58;;;;;;;45.27;20.23;;;4.90;99.90;;;;;;4996930;28;20262;-91
2022/11/30 01:16:27;;;;;;;44.40;21.37;;;4.90;99.90;;;;;;4996685;28;20206;-89
2022/11/30 01:18:52;;;;;;;47.80;21.47;;;4.90;99.90;;;;;;4996453;28;20238;-89
2022/11/30 01:21:23;;;;;;;43.30;20.37;;;4.90;99.90;;;;;;4996546;28;20655;-90
2022/11/30 01:23:50;;;;;;;51.43;22.20;;;4.90;99.90;;;;;;4996414;28;20178;-91
2022/11/30 01:26:16;;;;;;;46.43;21.20;;;4.90;99.90;;;;;;4996147;28;20168;-91
2022/11/30 01:28:44;;;;;;;54.97;21.57;;;4.90;99.90;;;;;;4996373;28;20674;-91
2022/11/30 01:31:12;;;;;;;54.50;23.37;;;4.90;99.90;;;;;;4996310;28;20181;-91
2022/11/30 01:33:39;;;;;;;55.60;23.33;;;4.90;99.90;;;;;;4996121;28;20462;-90
2022/11/30 01:36:15;;;;;;;57.63;24.27;;;4.90;99.90;;;;;;4996480;28;20182;-91
2022/11/30 01:38:43;;;;;;;57.73;23.03;;;4.80;99.90;;;;;;4995814;28;20210;-91
2022/11/30 01:41:11;;;;;;;75.60;23.07;;;4.80;99.90;;;;;;5013621;28;20179;-90
2022/11/30 01:44:06;;;;;;;53.60;23.57;;;4.90;99.90;;;;;;4996488;28;20255;-90
2022/11/30 01:46:41;;;;;;;62.13;22.90;;;4.80;99.90;;;;;;4979786;28;20555;-90
2022/11/30 01:49:09;;;;;;;65.77;22.97;;;4.90;99.90;;;;;;4995819;28;20563;-91
2022/11/30 01:51:43;;;;;;;72.33;23.93;;;4.80;99.90;;;;;;4995997;28;20199;-91
2022/11/30 01:54:11;;;;;;;58.17;22.93;;;4.90;99.90;;;;;;4996121;28;20187;-90
2022/11/30 01:57:34;;;;;;;56.60;21.93;;;4.90;99.90;;;;;;4996080;28;20270;-92
2022/11/30 02:00:06;;;;;;;53.53;22.50;;;4.80;99.90;;;;;;4966613;28;20218;-91
2022/11/30 02:02:39;;;;;;;53.47;22.47;;;4.80;99.90;;;;;;4996369;28;20635;-90
2022/11/30 02:05:06;;;;;;;57.03;23.20;;;4.80;99.90;;;;;;4996496;28;20797;-92
2022/11/30 02:07:33;;;;;;;53.93;22.57;;;4.80;99.90;;;;;;4995654;28;20210;-91
2022/11/30 02:09:58;;;;;;;52.60;22.17;;;4.80;99.90;;;;;;4995695;28;20179;-92
2022/11/30 02:13:03;;;;;;;51.83;22.87;;;4.90;99.90;;;;;;4995755;28;20176;-92
2022/11/30 02:15:51;;;;;;;48.27;22.57;;;4.90;99.90;;;;;;4991912;28;20191;-91
2022/11/30 02:18:45;;;;;;;54.27;22.93;;;4.90;99.90;;;;;;4995346;28;20203;-90
2022/11/30 02:21:25;;;;;;;55.67;23.07;;;4.90;99.90;;;;;;4995632;28;20171;-89
2022/11/30 02:24:13;;;;;;;53.53;22.07;;;4.80;99.90;;;;;;4995454;28;20179;-91
2022/11/30 02:26:57;;;;;;;55.50;23.10;;;4.80;99.90;;;;;;4995172;28;20334;-90
2022/11/30 02:29:46;;;;;;;60.63;23.53;;;4.80;99.90;;;;;;4995422;28;20286;-88
2022/11/30 02:32:18;;;;;;;55.67;23.57;;;4.80;99.90;;;;;;4995433;28;20262;-89
2022/11/30 02:34:47;;;;;;;60.23;22.43;;;4.80;99.90;;;;;;5012732;28;20163;-91
2022/11/30 02:37:15;;;;;;;50.47;22.97;;;4.80;99.90;;;;;;4995347;28;20231;-91
2022/11/30 02:39:42;;;;;;;60.77;24.77;;;4.80;99.90;;;;;;4995202;28;20230;-91
2022/11/30 02:42:14;;;;;;;53.10;22.40;;;4.80;99.90;;;;;;4995225;28;20234;-92
2022/11/30 02:44:43;;;;;;;58.70;22.93;;;4.80;99.90;;;;;;4995465;28;20176;-90
2022/11/30 02:47:30;;;;;;;50.17;23.60;;;4.80;99.90;;;;;;4995227;28;20206;-91
2022/11/30 02:49:59;;;;;;;51.50;22.93;;;4.80;99.90;;;;;;4995222;28;20199;-91
2022/11/30 02:52:27;;;;;;;61.53;23.73;;;4.80;99.90;;;;;;4995257;28;20198;-92
2022/11/30 02:55:01;;;;;;;51.73;22.00;;;4.80;99.90;;;;;;4994797;28;20175;-90
2022/11/30 02:57:27;;;;;;;47.50;22.10;;;4.80;99.90;;;;;;4995159;28;20203;-91
2022/11/30 02:59:53;;;;;;;53.27;24.10;;;4.80;99.90;;;;;;4995278;28;20202;-89
2022/11/30 03:02:19;;;;;;;55.57;23.63;;;4.80;99.90;;;;;;4995204;28;20175;-92
2022/11/30 03:04:45;;;;;;;52.50;21.40;;;4.80;99.90;;;;;;5012012;28;20582;-91
2022/11/30 03:07:11;;;;;;;53.77;23.33;;;4.80;99.90;;;;;;5013199;28;20199;-90
2022/11/30 03:09:36;;;;;;;50.87;22.97;;;4.80;99.90;;;;;;4995296;28;20176;-91
2022/11/30 03:12:02;;;;;;;51.80;22.53;;;4.80;99.90;;;;;;5006311;28;20190;-93
2022/11/30 03:14:28;;;;;;;57.53;23.20;;;4.80;99.90;;;;;;5014892;28;20193;-90
2022/11/30 03:16:54;;;;;;;56.37;21.60;;;4.80;99.90;;;;;;5018453;28;20538;-92
2022/11/30 03:19:20;;;;;;;54.17;21.57;;;4.80;99.90;;;;;;5018383;28;20290;-91
2022/11/30 03:21:45;;;;;;;52.10;22.33;;;4.80;99.90;;;;;;5036406;28;20165;-90
2022/11/30 03:24:11;;;;;;;52.17;22.43;;;4.80;99.90;;;;;;5382013;23;20618;-96
2022/11/30 03:26:37;;;;;;;49.63;21.03;;;4.90;99.90;;;;;;5037377;28;20521;-93
2022/11/30 03:29:03;;;;;;;55.63;24.17;;;4.80;99.90;;;;;;5037549;28;20179;-86
2022/11/30 03:31:28;;;;;;;50.20;21.83;;;4.80;99.90;;;;;;5037704;28;20182;-93
2022/11/30 03:33:54;;;;;;;52.93;23.13;;;4.90;99.90;;;;;;5037596;28;20527;-91
2022/11/30 03:36:20;;;;;;;54.20;22.70;;;4.90;99.90;;;;;;5037143;28;20228;-95
2022/11/30 03:38:46;;;;;;;58.93;22.83;;;4.80;99.90;;;;;;5038023;28;20199;-91
2022/11/30 03:41:15;;;;;;;61.00;24.30;;;4.90;99.90;;;;;;5047399;28;20248;-96
2022/11/30 03:43:42;;;;;;;53.77;22.00;;;4.90;99.90;;;;;;5056391;28;20551;-96
2022/11/30 03:46:17;;;;;;;61.10;22.73;;;4.90;99.90;;;;;;5057982;28;20184;-94
2022/11/30 03:48:43;;;;;;;49.27;22.47;;;4.90;99.90;;;;;;5057707;28;20236;-95
2022/11/30 03:51:11;;;;;;;51.23;22.50;;;4.90;99.90;;;;;;5057781;28;20166;-96
2022/11/30 03:53:36;;;;;;;54.87;20.93;;;4.90;99.90;;;;;;5057878;28;20182;-96
2022/11/30 03:56:15;;;;;;;55.33;22.57;;;4.90;99.90;;;;;;5057723;28;20174;-93
2022/11/30 03:58:41;;;;;;;55.60;20.83;;;4.80;99.90;;;;;;5057457;28;20220;-92
2022/11/30 04:01:08;;;;;;;53.83;22.03;;;4.80;99.90;;;;;;5056738;28;20218;-94
2022/11/30 04:03:34;;;;;;;55.73;24.10;;;4.90;99.90;;;;;;5056760;28;20170;-96
2022/11/30 04:06:10;;;;;;;55.17;22.40;;;4.90;99.90;;;;;;5057673;28;20197;-95
2022/11/30 04:08:37;;;;;;;62.47;22.57;;;4.90;99.90;;;;;;5056997;28;20279;-91
2022/11/30 04:11:04;;;;;;;58.53;22.93;;;4.90;99.90;;;;;;5056843;28;20178;-94
2022/11/30 04:13:31;;;;;;;56.73;21.73;;;4.90;99.90;;;;;;5057339;28;20192;-96
2022/11/30 04:16:17;;;;;;;54.90;23.20;;;4.90;99.90;;;;;;5057553;28;20166;-96
2022/11/30 04:18:42;;;;;;;56.07;22.97;;;4.90;99.90;;;;;;5057270;28;20252;-96
2022/11/30 04:21:09;;;;;;;54.80;21.47;;;4.90;99.90;;;;;;5057291;28;20174;-96
2022/11/30 04:23:38;;;;;;;67.97;23.67;;;4.80;99.90;;;;;;5057682;28;20229;-92
2022/11/30 04:26:14;;;;;;;49.63;22.77;;;4.90;99.90;;;;;;5076982;28;20193;-93
2022/11/30 04:28:40;;;;;;;55.63;22.47;;;4.90;99.90;;;;;;5077139;28;20190;-94
2022/11/30 04:31:06;;;;;;;76.13;22.70;;;4.90;99.90;;;;;;5077329;28;20169;-96
2022/11/30 04:33:32;;;;;;;54.07;21.73;;;4.90;99.90;;;;;;5076984;28;20181;-95
2022/11/30 04:36:03;;;;;;;61.63;21.60;;;4.90;99.90;;;;;;5077043;28;20173;-96
2022/11/30 04:38:29;;;;;;;57.07;23.93;;;4.90;99.90;;;;;;5076625;28;20188;-91
2022/11/30 04:40:55;;;;;;;50.80;21.33;;;4.90;99.90;;;;;;5058814;28;20259;-92
2022/11/30 04:43:22;;;;;;;76.50;23.20;;;4.90;99.90;;;;;;5072716;28;20240;-91
2022/11/30 04:45:48;;;;;;;55.40;22.40;;;4.90;99.90;;;;;;5056674;28;20177;-91
2022/11/30 04:48:15;;;;;;;71.63;22.83;;;4.90;99.90;;;;;;5056556;28;20162;-91
2022/11/30 04:50:41;;;;;;;79.30;21.47;;;4.90;99.90;;;;;;5038996;28;20186;-91
2022/11/30 04:53:08;;;;;;;72.73;23.73;;;4.90;99.90;;;;;;5056684;28;20550;-95
2022/11/30 04:55:38;;;;;;;63.10;22.63;;;4.90;99.90;;;;;;5038907;28;20178;-88
2022/11/30 04:58:04;;;;;;;54.60;21.43;;;4.90;99.90;;;;;;5056504;28;20158;-95
2022/11/30 05:00:30;;;;;;;62.93;22.47;;;4.90;99.90;;;;;;5056505;28;20296;-94
2022/11/30 05:02:56;;;;;;;62.47;23.60;;;4.90;99.90;;;;;;5056559;28;20608;-93
2022/11/30 05:05:22;;;;;;;56.97;23.17;;;4.90;99.90;;;;;;5056589;28;20515;-95
2022/11/30 05:07:55;;;;;;;60.40;22.57;;;4.90;99.90;;;;;;5056184;28;20616;-93
2022/11/30 05:10:21;;;;;;;76.50;23.27;;;5.00;99.90;;;;;;5056366;28;20165;-94
2022/11/30 05:12:49;;;;;;;54.47;23.17;;;4.90;99.90;;;;;;5038454;28;20177;-93
2022/11/30 05:15:15;;;;;;;88.03;23.47;;;4.90;99.90;;;;;;5056387;28;20268;-94
2022/11/30 05:17:40;;;;;;;80.23;24.27;;;4.90;99.90;;;;;;5055887;28;20174;-88
2022/11/30 05:20:07;;;;;;;67.07;22.80;;;4.80;99.90;;;;;;5056513;28;20244;-90
2022/11/30 05:22:34;;;;;;;73.77;22.43;;;4.80;99.90;;;;;;5056281;28;20170;-86
2022/11/30 05:25:00;;;;;;;98.33;24.10;;;4.90;99.90;;;;;;5055062;28;20272;-80
2022/11/30 05:27:26;;;;;;;75.40;24.73;;;4.90;99.90;;;;;;5054703;28;20604;-81
2022/11/30 05:29:51;;;;;;;67.10;23.77;;;4.90;99.90;;;;;;5055029;28;20237;-81
2022/11/30 05:32:17;;;;;;;89.77;24.00;;;4.90;99.90;;;;;;5055001;28;20178;-81
2022/11/30 05:34:43;;;;;;;91.30;24.77;;;4.90;99.90;;;;;;5054991;28;20609;-80
2022/11/30 05:37:09;;;;;;;68.93;22.13;;;4.90;99.90;;;;;;5054855;28;20178;-85
2022/11/30 05:39:34;;;;;;;85.17;23.67;;;4.90;99.90;;;;;;5054242;28;20285;-86
2022/11/30 05:42:00;;;;;;;74.23;24.57;;;4.90;99.90;;;;;;5036853;28;20182;-84
2022/11/30 05:44:26;;;;;;;80.93;23.43;;;4.90;99.90;;;;;;5054786;28;20235;-81
2022/11/30 05:46:51;;;;;;;91.97;23.73;;;4.90;99.90;;;;;;5054779;28;20174;-80
2022/11/30 05:49:17;;;;;;;79.83;25.30;;;4.90;99.90;;;;;;5054922;28;20311;-94
2022/11/30 05:51:43;;;;;;;53.40;23.10;;;4.90;99.90;;;;;;5054493;28;20170;-95
2022/11/30 05:54:09;;;;;;;92.57;24.60;;;4.90;99.90;;;;;;5036714;28;20546;-84
2022/11/30 05:56:35;;;;;;;70.17;24.07;;;4.90;99.90;;;;;;5055051;28;20181;-85
2022/11/30 05:59:00;;;;;;;63.07;24.33;;;4.80;99.90;;;;;;5055161;28;20239;-91
2022/11/30 06:01:28;;;;;;;64.93;24.80;;;4.90;99.90;;;;;;5055615;28;20259;-87
2022/11/30 06:03:54;;;;;;;80.40;24.67;;;4.90;99.90;;;;;;5055332;28;20166;-90
2022/11/30 06:06:28;;;;;;;89.03;25.27;;;4.90;99.90;;;;;;5055421;28;20209;-91
2022/11/30 06:08:54;;;;;;;114.33;25.83;;;4.90;99.90;;;;;;5037432;28;20605;-91
2022/11/30 06:11:19;;;;;;;99.97;24.57;;;4.90;99.90;;;;;;5055283;28;20184;-93
2022/11/30 06:13:45;;;;;;;105.10;25.07;;;4.90;99.90;;;;;;5054983;28;20261;-93
2022/11/30 06:16:14;;;;;;;84.87;24.67;;;4.90;99.90;;;;;;5037460;28;20514;-90
2022/11/30 06:18:40;;;;;;;75.37;25.40;;;4.90;99.90;;;;;;5037203;28;20202;-95
2022/11/30 06:21:09;;;;;;;87.97;24.13;;;4.90;99.90;;;;;;5055077;28;20184;-96
2022/11/30 06:23:34;;;;;;;73.17;25.47;;;4.90;99.90;;;;;;5055172;28;20182;-93
2022/11/30 06:26:10;;;;;;;103.00;24.97;;;4.90;99.90;;;;;;5057351;28;20180;-95
2022/11/30 06:28:37;;;;;;;95.90;24.47;;;4.90;99.90;;;;;;5057091;28;20181;-85
2022/11/30 06:31:05;;;;;;;88.27;25.40;;;4.90;99.90;;;;;;5058330;28;20212;-96
2022/11/30 06:33:31;;;;;;;97.37;26.43;;;4.90;99.90;;;;;;5081530;28;20212;-88
2022/11/30 06:35:57;;;;;;;86.47;26.73;;;4.90;99.90;;;;;;5081668;28;20220;-96
2022/11/30 06:38:24;;;;;;;99.67;25.97;;;4.90;99.90;;;;;;5060998;28;20616;-96
2022/11/30 06:40:51;;;;;;;65.97;26.20;;;4.90;99.90;;;;;;5076423;28;20181;-83
2022/11/30 06:43:17;;;;;;;75.70;25.07;;;4.90;99.90;;;;;;5054875;28;20181;-88
2022/11/30 06:45:44;;;;;;;85.80;25.13;;;5.00;99.90;;;;;;5055463;28;20261;-86
2022/11/30 06:48:11;;;;;;;66.80;25.77;;;5.00;99.90;;;;;;5036614;28;20181;-80
2022/11/30 06:50:37;;;;;;;117.77;27.10;;;5.00;99.90;;;;;;5038484;28;20165;-92
2022/11/30 06:53:03;;;;;;;79.03;25.80;;;4.90;99.90;;;;;;5054666;28;20213;-92
2022/11/30 07:08:57;;;;;;;66.97;24.33;;;4.90;99.90;;;;;;5039668;28;20174;-93
2022/11/30 07:11:23;;;;;;;77.40;26.17;;;5.00;99.90;;;;;;5021000;28;20528;-84
2022/11/30 07:13:49;;;;;;;82.87;28.23;;;5.00;99.90;;;;;;5038834;28;20182;-87
2022/11/30 07:16:14;;;;;;;80.10;24.97;;;5.00;99.90;;;;;;5038556;28;20175;-85
2022/11/30 07:18:40;;;;;;;95.83;25.87;;;5.00;99.90;;;;;;5038260;28;20214;-91
2022/11/30 07:21:06;;;;;;;90.60;27.20;;;5.00;99.90;;;;;;5075949;28;20673;-89
2022/11/30 07:26:16;;;;;;;86.73;25.63;;;5.00;99.90;;;;;;5058187;28;20239;-83
2022/11/30 07:28:45;;;;;;;83.87;27.20;;;5.00;99.90;;;;;;5058119;28;20175;-92
2022/11/30 07:31:18;;;;;;;98.70;26.30;;;5.00;99.90;;;;;;5022273;28;20190;-93
2022/11/30 07:33:44;;;;;;;92.00;26.00;;;5.10;99.90;;;;;;5038118;28;20249;-94
2022/11/30 07:36:10;;;;;;;77.23;26.63;;;5.00;99.90;;;;;;5055418;28;20185;-92
2022/11/30 07:38:37;;;;;;;84.23;26.73;;;5.10;99.90;;;;;;5056343;28;20182;-92
2022/11/30 07:41:03;;;;;;;87.70;26.80;;;5.00;99.90;;;;;;5056389;28;20249;-91
2022/11/30 07:43:29;;;;;;;78.40;26.97;;;5.00;99.90;;;;;;5056943;28;20184;-92
2022/11/30 07:45:56;;;;;;;84.93;27.30;;;5.00;99.90;;;;;;5039303;28;20261;-88
2022/11/30 07:48:22;;;;;;;79.53;27.77;;;5.00;99.90;;;;;;5057152;28;20229;-92
2022/11/30 07:50:48;;;;;;;104.20;27.87;;;5.00;99.90;;;;;;5070610;28;20683;-83
2022/11/30 07:53:14;;;;;;;69.57;27.73;;;5.00;99.90;;;;;;5077297;28;20514;-84
2022/11/30 07:55:40;;;;;;;143.03;28.50;;;5.00;99.90;;;;;;5077326;28;20177;-90
2022/11/30 07:58:06;;;;;;;92.90;26.93;;;5.10;99.90;;;;;;5077283;28;20177;-90
2022/11/30 08:00:32;;;;;;;85.80;27.67;;;5.10;99.90;;;;;;5039842;28;20543;-89
2022/11/30 08:02:57;;;;;;;77.63;26.63;;;5.10;99.90;;;;;;5072467;28;20242;-89
2022/11/30 08:05:23;;;;;;;89.00;26.77;;;5.10;99.90;;;;;;5076961;28;20173;-86
2022/11/30 08:07:53;;;;;;;102.80;28.40;;;5.10;99.90;;;;;;5059155;28;20621;-93
2022/11/30 08:10:22;;;;;;;88.90;24.93;;;5.10;99.90;;;;;;5076424;28;20174;-92
2022/11/30 08:12:48;;;;;;;64.63;25.60;;;5.10;99.90;;;;;;5076894;28;20263;-89
2022/11/30 08:15:15;;;;;;;82.07;25.97;;;5.10;99.90;;;;;;5076601;28;20177;-87
2022/11/30 08:17:41;;;;;;;105.63;26.87;;;5.10;99.90;;;;;;5074902;28;20247;-91
2022/11/30 08:20:08;;;;;;;79.93;27.30;;;5.10;99.90;;;;;;5076782;28;20205;-92
2022/11/30 08:22:35;;;;;;;88.10;25.47;;;5.10;99.90;;;;;;5076704;28;20177;-92
2022/11/30 08:25:01;;;;;;;75.27;25.57;;;5.10;99.90;;;;;;5058724;28;20251;-91
2022/11/30 08:27:26;;;;;;;75.73;26.37;;;5.10;99.90;;;;;;5076474;28;20173;-91
2022/11/30 08:29:52;;;;;;;95.73;28.43;;;5.10;99.90;;;;;;5066440;28;20189;-88
2022/11/30 08:32:19;;;;;;;86.73;26.63;;;5.10;99.90;;;;;;5046858;28;20228;-91
2022/11/30 08:34:45;;;;;;;76.77;26.97;;;5.10;99.90;;;;;;5041934;28;20178;-90
2022/11/30 08:37:11;;;;;;;83.73;25.90;;;5.10;99.90;;;;;;5036390;28;20174;-93
2022/11/30 08:39:37;;;;;;;108.00;25.77;;;5.10;99.90;;;;;;5036474;28;20214;-93
2022/11/30 08:42:03;;;;;;;89.30;25.67;;;5.10;99.90;;;;;;5018836;28;20170;-90
2022/11/30 08:44:29;;;;;;;68.93;24.97;;;5.10;99.90;;;;;;5036412;28;20633;-90
2022/11/30 08:46:55;;;;;;;69.83;24.17;;;5.10;99.90;;;;;;5041090;28;20621;-92
2022/11/30 08:49:22;;;;;;;83.53;26.93;;;5.10;99.90;;;;;;5044304;28;20167;-93
2022/11/30 08:51:49;;;;;;;80.70;26.47;;;5.10;99.90;;;;;;5044370;28;20178;-89
2022/11/30 08:54:15;;;;;;;86.63;26.03;;;5.10;99.90;;;;;;5052221;28;20174;-90
2022/11/30 08:56:41;;;;;;;99.00;28.63;;;5.10;99.90;;;;;;5054077;28;20178;-92
2022/11/30 08:59:06;;;;;;;67.23;26.50;;;5.10;99.90;;;;;;5036228;28;20281;-89
2022/11/30 09:01:32;;;;;;;74.43;27.57;;;5.10;99.90;;;;;;5049890;28;20213;-91
2022/11/30 09:03:58;;;;;;;77.07;27.50;;;5.10;99.90;;;;;;5055828;28;20209;-93
2022/11/30 09:06:26;;;;;;;71.27;27.37;;;5.20;99.90;;;;;;5038573;28;20182;-91
2022/11/30 09:08:54;;;;;;;83.43;27.83;;;5.10;99.90;;;;;;5055945;28;20166;-92
2022/11/30 09:11:25;;;;;;;76.53;26.83;;;5.10;99.90;;;;;;5055855;28;20168;-89
2022/11/30 09:13:56;;;;;;;61.67;24.93;;;5.10;99.90;;;;;;5054731;28;20220;-92
2022/11/30 09:16:23;;;;;;;82.27;25.80;;;5.10;99.90;;;;;;5055541;28;20173;-90
2022/11/30 09:18:50;;;;;;;67.93;25.63;;;5.20;99.90;;;;;;5055544;28;20205;-88
2022/11/30 09:21:19;;;;;;;83.77;26.30;;;5.20;99.90;;;;;;5030784;28;20501;-92
2022/11/30 09:23:45;;;;;;;61.90;24.73;;;5.10;99.90;;;;;;5035565;28;20233;-91
2022/11/30 09:26:13;;;;;;;76.10;26.47;;;5.10;99.90;;;;;;5035570;28;20601;-90
2022/11/30 09:28:40;;;;;;;70.27;26.43;;;5.20;99.90;;;;;;5036471;28;20518;-88
2022/11/30 09:31:10;;;;;;;85.17;27.03;;;5.20;99.90;;;;;;5037807;28;20192;-90
2022/11/30 09:33:36;;;;;;;79.10;26.00;;;5.20;99.90;;;;;;5037873;28;20162;-91
2022/11/30 09:36:05;;;;;;;81.97;26.87;;;5.20;99.90;;;;;;5055431;28;20174;-91
2022/11/30 09:38:31;;;;;;;83.37;27.03;;;5.20;99.90;;;;;;5055115;28;20252;-91
2022/11/30 09:40:59;;;;;;;78.67;26.70;;;5.20;99.90;;;;;;5055368;28;20173;-90
2022/11/30 09:43:46;;;;;;;79.10;25.07;;;5.20;99.90;;;;;;5055028;28;20516;-91
2022/11/30 09:46:12;;;;;;;82.97;27.60;;;5.20;99.90;;;;;;5037075;28;20175;-90
2022/11/30 09:49:02;;;;;;;74.93;25.70;;;5.20;99.90;;;;;;5037285;28;20183;-91
2022/11/30 09:51:44;;;;;;;91.87;26.27;;;5.30;99.90;;;;;;5034763;28;20190;-91
2022/11/30 09:54:19;;;;;;;73.37;26.53;;;5.30;99.90;;;;;;5038560;28;20174;-90
2022/11/30 09:56:46;;;;;;;81.20;26.43;;;5.30;99.90;;;;;;5055095;28;20233;-89
2022/11/30 09:59:25;;;;;;;83.33;25.70;;;5.30;99.90;;;;;;5037299;28;20210;-88
2022/11/30 10:01:52;;;;;;;74.50;27.00;;;5.30;99.90;;;;;;5035967;28;20205;-89
2022/11/30 10:04:22;;;;;;;86.97;27.07;;;5.30;99.90;;;;;;5036811;28;20193;-87
2022/11/30 10:07:07;;;;;;;92.43;28.30;;;5.30;99.90;;;;;;5054513;28;20252;-88
2022/11/30 10:09:47;;;;;;;76.70;26.77;;;5.30;99.90;;;;;;5054958;28;20231;-88
2022/11/30 10:12:30;;;;;;;77.90;27.83;;;5.30;99.90;;;;;;5053544;28;20178;-85
2022/11/30 10:15:20;;;;;;;72.87;27.40;;;5.30;99.90;;;;;;5054290;28;20162;-88
2022/11/30 10:17:54;;;;;;;74.70;26.37;;;5.30;99.90;;;;;;5033636;28;20616;-88
2022/11/30 10:20:41;;;;;;;71.03;26.57;;;5.30;99.90;;;;;;5034338;28;20206;-88
2022/11/30 10:23:39;;;;;;;76.30;27.53;;;5.30;99.90;;;;;;5017500;28;20583;-88
2022/11/30 10:26:07;;;;;;;76.37;26.47;;;5.40;99.90;;;;;;5054012;28;20178;-88
2022/11/30 10:28:51;;;;;;;81.60;27.67;;;5.40;99.90;;;;;;5049129;28;20620;-88
2022/11/30 10:31:29;;;;;;;86.73;28.17;;;5.40;99.90;;;;;;5034166;28;20594;-88
2022/11/30 10:34:01;;;;;;;73.40;26.77;;;5.40;99.90;;;;;;5033871;28;20188;-87
2022/11/30 10:36:35;;;;;;;75.07;26.33;;;5.40;99.90;;;;;;5040181;28;20241;-88
2022/11/30 10:39:09;;;;;;;75.03;27.53;;;5.40;99.90;;;;;;5053683;28;20264;-89
2022/11/30 10:41:43;;;;;;;80.90;27.27;;;5.40;99.90;;;;;;5028841;28;20621;-88
2022/11/30 10:44:27;;;;;;;70.67;26.93;;;5.40;99.90;;;;;;5054074;28;20158;-88
2022/11/30 10:47:23;;;;;;;68.50;26.60;;;5.40;99.90;;;;;;5052995;28;20216;-88
2022/11/30 10:49:51;;;;;;;69.90;26.43;;;5.40;99.90;;;;;;5053827;28;20228;-88
2022/11/30 10:52:40;;;;;;;75.43;27.47;;;5.40;99.90;;;;;;5054016;28;20162;-88
2022/11/30 10:55:19;;;;;;;70.77;26.43;;;5.40;99.90;;;;;;5053112;28;20224;-89
2022/11/30 10:57:47;;;;;;;76.87;26.90;;;5.40;99.90;;;;;;5016039;28;20209;-88
2022/11/30 11:00:16;;;;;;;74.67;26.03;;;5.40;99.90;;;;;;5033336;28;20206;-87
2022/11/30 11:02:45;;;;;;;71.33;26.93;;;5.50;99.90;;;;;;5033763;28;20512;-88
2022/11/30 11:05:18;;;;;;;68.17;28.00;;;5.40;99.90;;;;;;5033752;28;20179;-87
2022/11/30 11:07:49;;;;;;;66.10;25.93;;;5.40;99.90;;;;;;5041686;28;20170;-88
2022/11/30 11:10:18;;;;;;;67.40;26.10;;;5.40;99.90;;;;;;5024262;28;20190;-87
2022/11/30 11:12:51;;;;;;;66.80;24.97;;;5.50;99.90;;;;;;5052104;28;20663;-87
2022/11/30 11:15:24;;;;;;;66.30;24.87;;;5.50;99.90;;;;;;5053809;28;20194;-88
2022/11/30 11:17:51;;;;;;;61.23;25.47;;;5.50;99.90;;;;;;5053928;28;20231;-88
2022/11/30 11:20:37;;;;;;;63.43;24.63;;;5.50;99.90;;;;;;5052604;28;20210;-88
2022/11/30 11:23:04;;;;;;;66.30;26.43;;;5.50;99.90;;;;;;5029118;28;20672;-88
2022/11/30 11:25:29;;;;;;;68.70;24.27;;;5.40;99.90;;;;;;5051345;28;20684;-88
2022/11/30 11:28:23;;;;;;;65.90;25.37;;;5.50;99.90;;;;;;5052822;28;20213;-87
2022/11/30 11:30:52;;;;;;;69.83;26.00;;;5.50;99.90;;;;;;5053071;28;20212;-88
2022/11/30 11:33:28;;;;;;;71.43;26.97;;;5.50;99.90;;;;;;5053095;28;20189;-86
2022/11/30 11:36:13;;;;;;;66.17;26.10;;;5.50;99.90;;;;;;5052470;28;20605;-88
2022/11/30 11:38:50;;;;;;;66.27;26.10;;;5.40;99.90;;;;;;5055220;28;20173;-88
2022/11/30 11:41:37;;;;;;;67.17;25.63;;;5.40;99.90;;;;;;5056781;28;20177;-87
2022/11/30 11:44:26;;;;;;;67.73;25.40;;;5.50;99.90;;;;;;5057122;28;20225;-87
2022/11/30 11:46:56;;;;;;;65.87;24.70;;;5.40;99.90;;;;;;5056598;28;20269;-85
2022/11/30 11:49:31;;;;;;;66.33;26.80;;;5.50;99.90;;;;;;5056215;28;20178;-86
2022/11/30 11:52:05;;;;;;;72.10;28.73;;;5.50;99.90;;;;;;5056822;28;20588;-87
2022/11/30 11:54:50;;;;;;;68.80;27.03;;;5.40;99.90;;;;;;5043687;28;20182;-88
2022/11/30 11:57:20;;;;;;;70.67;27.17;;;5.50;99.90;;;;;;5036381;28;20594;-86
2022/11/30 12:00:11;;;;;;;70.67;26.53;;;5.40;99.90;;;;;;5018509;28;20567;-87
2022/11/30 12:02:50;;;;;;;65.67;26.87;;;5.50;99.90;;;;;;5037514;28;20241;-87
2022/11/30 12:05:28;;;;;;;63.63;26.70;;;5.40;99.90;;;;;;5056651;28;20480;-89
2022/11/30 12:08:31;;;;;;;65.60;26.90;;;5.40;99.90;;;;;;5056439;28;20173;-89
2022/11/30 12:11:03;;;;;;;69.50;27.60;;;5.40;99.90;;;;;;5039619;28;20181;-87
2022/11/30 12:13:38;;;;;;;84.53;30.83;;;5.40;99.90;;;;;;5056583;28;20189;-87
2022/11/30 12:16:19;;;;;;;72.87;27.00;;;5.40;99.90;;;;;;5056758;28;20176;-87
2022/11/30 12:18:48;;;;;;;77.27;29.73;;;5.40;99.90;;;;;;5056201;28;20223;-88
2022/11/30 12:21:22;;;;;;;78.17;29.57;;;5.40;99.90;;;;;;5038909;28;20186;-86
2022/11/30 12:24:16;;;;;;;74.80;30.27;;;5.40;99.90;;;;;;5055788;28;20178;-88
2022/11/30 12:26:49;;;;;;;73.83;28.20;;;5.40;99.90;;;;;;5038878;28;20617;-89
2022/11/30 12:29:28;;;;;;;83.60;29.23;;;5.40;99.90;;;;;;5056547;28;20181;-89
2022/11/30 12:32:17;;;;;;;77.23;30.07;;;5.40;99.90;;;;;;5056019;28;20184;-86
2022/11/30 12:34:51;;;;;;;87.33;32.13;;;5.40;99.90;;;;;;5056303;28;20190;-89
2022/11/30 12:37:35;;;;;;;88.73;31.67;;;5.40;99.90;;;;;;5038559;28;20183;-88
2022/11/30 12:40:35;;;;;;;89.87;31.67;;;5.40;99.90;;;;;;5056182;28;20237;-87
2022/11/30 12:43:27;;;;;;;86.30;31.57;;;5.40;99.90;;;;;;5035898;28;20175;-88
2022/11/30 12:45:58;;;;;;;81.50;32.40;;;5.40;99.90;;;;;;5036323;28;20621;-87
2022/11/30 13:04:35;;;;;;;81.50;30.80;;;5.40;99.90;;;;;;4076748;28;20279;-87
2022/11/30 13:07:28;;;;;;;78.50;31.07;;;5.40;99.90;;;;;;5055751;28;20224;-89
2022/11/30 13:10:11;;;;;;;78.50;32.20;;;5.40;99.90;;;;;;5039177;28;20178;-86
2022/11/30 13:12:41;;;;;;;86.90;33.80;;;5.40;99.90;;;;;;5039633;28;20204;-87
2022/11/30 13:15:16;;;;;;;93.43;34.93;;;5.30;99.90;;;;;;5037495;28;20240;-83
2022/11/30 13:17:43;;;;;;;76.70;30.33;;;5.40;99.90;;;;;;5037842;28;20174;-89
2022/11/30 13:20:21;;;;;;;74.67;32.53;;;5.30;99.90;;;;;;5055363;28;20202;-89
2022/11/30 13:22:49;;;;;;;72.23;31.23;;;5.40;99.90;;;;;;5037727;28;20178;-88
2022/11/30 13:25:46;;;;;;;78.47;30.97;;;5.40;99.90;;;;;;5037474;28;20189;-87